createdAt,value
2023-04-13T00:00:38.927Z,7.40
2023-04-13T00:03:12.195Z,7.40
2023-04-13T00:05:41.229Z,7.30
2023-04-13T00:08:09.800Z,7.20
2023-04-13T00:10:41.365Z,7.20
2023-04-13T00:13:12.006Z,7.20
2023-04-13T00:15:46.138Z,7.20
2023-04-13T00:18:15.270Z,7.30
2023-04-13T00:20:43.641Z,7.00
2023-04-13T00:23:12.330Z,7.00
2023-04-13T00:25:40.800Z,6.90
2023-04-13T00:28:10.473Z,6.90
2023-04-13T00:30:40.721Z,6.80
2023-04-13T00:33:09.149Z,6.80
2023-04-13T00:35:37.440Z,6.80
2023-04-13T00:38:05.434Z,6.80
2023-04-13T00:40:33.669Z,6.70
2023-04-13T00:43:02.423Z,6.70
2023-04-13T00:45:32.104Z,6.70
2023-04-13T00:48:00.898Z,6.70
2023-04-13T00:50:29.265Z,6.70
2023-04-13T00:52:59.851Z,6.60
2023-04-13T00:55:29.179Z,6.70
2023-04-13T00:58:00.363Z,6.70
2023-04-13T01:00:28.566Z,6.70
2023-04-13T01:03:01.631Z,6.70
2023-04-13T01:05:32.619Z,6.80
2023-04-13T01:08:12.752Z,6.70
2023-04-13T01:10:51.564Z,6.70
2023-04-13T01:13:23.062Z,6.70
2023-04-13T01:15:57.658Z,6.60
2023-04-13T01:18:29.488Z,6.60
2023-04-13T01:20:59.974Z,6.60
2023-04-13T01:23:34.673Z,6.60
2023-04-13T01:26:06.915Z,6.60
2023-04-13T01:28:38.851Z,6.60
2023-04-13T01:31:11.639Z,6.60
2023-04-13T01:33:42.261Z,6.70
2023-04-13T01:36:12.577Z,6.70
2023-04-13T01:38:40.909Z,6.80
2023-04-13T01:41:10.772Z,6.80
2023-04-13T01:43:40.437Z,6.80
2023-04-13T01:46:14.305Z,6.90
2023-04-13T01:48:49.660Z,6.90
2023-04-13T01:51:20.663Z,6.90
2023-04-13T01:53:53.567Z,6.90
2023-04-13T01:56:24.187Z,6.90
2023-04-13T01:59:00.256Z,7.00
2023-04-13T02:01:29.142Z,7.00
2023-04-13T02:03:58.178Z,7.10
2023-04-13T02:06:26.540Z,7.10
2023-04-13T02:08:54.936Z,7.20
2023-04-13T02:11:25.805Z,7.20
2023-04-13T02:13:57.714Z,7.20
2023-04-13T02:16:28.331Z,7.30
2023-04-13T02:18:58.229Z,7.30
2023-04-13T02:21:26.486Z,7.30
2023-04-13T02:23:57.415Z,7.30
2023-04-13T02:26:26.203Z,7.40
2023-04-13T02:28:56.746Z,7.40
2023-04-13T02:31:25.198Z,7.50
2023-04-13T02:33:53.669Z,7.50
2023-04-13T02:36:22.725Z,7.50
2023-04-13T02:38:50.608Z,7.50
2023-04-13T02:41:23.206Z,7.50
2023-04-13T02:43:52.200Z,7.50
2023-04-13T02:46:22.316Z,7.50
2023-04-13T02:48:50.589Z,7.50
2023-04-13T02:51:18.545Z,7.50
2023-04-13T02:53:46.993Z,7.50
2023-04-13T02:56:28.572Z,7.50
2023-04-13T02:58:57.191Z,7.50
2023-04-13T03:01:30.412Z,7.60
2023-04-13T03:03:58.548Z,7.60
2023-04-13T03:06:28.685Z,7.60
2023-04-13T03:08:56.615Z,7.60
2023-04-13T03:11:26.250Z,7.60
2023-04-13T03:13:58.814Z,7.60
2023-04-13T03:16:29.454Z,7.70
2023-04-13T03:18:59.555Z,7.70
2023-04-13T03:21:28.332Z,7.80
2023-04-13T03:23:56.379Z,7.80
2023-04-13T03:26:25.190Z,7.80
2023-04-13T03:28:55.869Z,7.80
2023-04-13T03:31:29.173Z,7.80
2023-04-13T03:33:59.176Z,7.80
2023-04-13T03:36:29.014Z,7.80
2023-04-13T03:38:58.137Z,7.80
2023-04-13T03:41:26.053Z,7.80
2023-04-13T03:43:53.978Z,7.80
2023-04-13T03:46:23.970Z,7.80
2023-04-13T03:48:52.591Z,7.80
2023-04-13T03:51:22.160Z,7.80
2023-04-13T03:53:50.500Z,7.80
2023-04-13T03:56:19.409Z,7.80
2023-04-13T03:58:47.349Z,7.80
2023-04-13T04:01:16.585Z,7.90
2023-04-13T04:03:46.094Z,7.80
2023-04-13T04:06:14.403Z,7.80
2023-04-13T04:08:45.480Z,7.90
2023-04-13T04:11:13.924Z,7.80
2023-04-13T04:13:41.830Z,7.80
2023-04-13T04:16:12.334Z,7.80
2023-04-13T04:18:42.029Z,7.80
2023-04-13T04:21:11.417Z,7.80
2023-04-13T04:23:39.932Z,7.70
2023-04-13T04:26:22.146Z,7.80
2023-04-13T04:28:50.933Z,7.80
2023-04-13T04:31:20.646Z,7.80
2023-04-13T04:33:49.220Z,7.80
2023-04-13T04:36:18.529Z,7.80
2023-04-13T04:38:47.734Z,7.80
2023-04-13T04:41:20.897Z,7.80
2023-04-13T04:43:52.014Z,7.80
2023-04-13T04:46:20.993Z,7.80
2023-04-13T04:48:51.089Z,7.80
2023-04-13T04:51:25.167Z,7.80
2023-04-13T04:53:53.630Z,7.70
2023-04-13T04:56:27.572Z,7.80
2023-04-13T04:58:55.856Z,7.80
2023-04-13T05:01:27.311Z,7.80
2023-04-13T05:03:55.814Z,7.80
2023-04-13T05:06:24.158Z,7.80
2023-04-13T05:08:52.304Z,7.80
2023-04-13T05:11:21.246Z,7.90
2023-04-13T05:13:57.981Z,7.90
2023-04-13T05:16:32.188Z,7.80
2023-04-13T05:19:00.364Z,7.80
2023-04-13T05:21:29.688Z,7.80
2023-04-13T05:23:57.813Z,7.80
2023-04-13T05:26:28.250Z,7.80
2023-04-13T05:28:59.387Z,7.80
2023-04-13T05:31:28.686Z,7.80
2023-04-13T05:33:57.207Z,7.80
2023-04-13T05:36:26.630Z,7.80
2023-04-13T05:38:57.010Z,9.30
2023-04-13T05:41:25.528Z,7.90
2023-04-13T05:43:56.157Z,7.90
2023-04-13T05:46:26.167Z,8.00
2023-04-13T05:48:54.773Z,8.00
2023-04-13T05:51:25.721Z,8.10
2023-04-13T05:53:54.849Z,8.20
2023-04-13T05:56:25.429Z,8.30
2023-04-13T05:58:54.214Z,8.30
2023-04-13T06:01:23.933Z,8.40
2023-04-13T06:03:55.975Z,8.60
2023-04-13T06:06:25.918Z,8.60
2023-04-13T06:08:55.878Z,8.60
2023-04-13T06:11:26.256Z,8.70
2023-04-13T06:13:59.956Z,8.70
2023-04-13T06:16:28.351Z,8.70
2023-04-13T06:19:00.011Z,8.70
2023-04-13T06:21:31.140Z,8.70
2023-04-13T06:23:59.416Z,8.80
2023-04-13T06:26:28.868Z,8.80
2023-04-13T06:28:58.689Z,8.60
2023-04-13T06:31:30.665Z,8.90
2023-04-13T06:34:00.474Z,8.90
2023-04-13T06:36:30.187Z,8.80
2023-04-13T06:38:59.079Z,8.80
2023-04-13T06:41:30.508Z,8.70
2023-04-13T06:43:58.640Z,8.50
2023-04-13T06:46:27.738Z,8.50
2023-04-13T06:48:56.501Z,8.50
2023-04-13T06:51:26.952Z,8.40
2023-04-13T06:53:55.625Z,8.40
2023-04-13T06:56:25.385Z,8.50
2023-04-13T06:58:58.611Z,8.50
2023-04-13T07:01:28.683Z,8.50
2023-04-13T07:03:59.612Z,8.40
2023-04-13T07:06:32.084Z,8.40
2023-04-13T07:09:01.197Z,8.30
2023-04-13T07:11:29.278Z,8.30
2023-04-13T07:13:57.981Z,8.30
2023-04-13T07:16:26.608Z,8.30
2023-04-13T07:18:56.903Z,8.30
2023-04-13T07:21:25.508Z,8.30
2023-04-13T07:23:57.699Z,8.30
2023-04-13T07:26:26.155Z,8.20
2023-04-13T07:28:55.224Z,8.10
2023-04-13T07:31:25.678Z,8.10
2023-04-13T07:33:54.401Z,8.20
2023-04-13T07:36:23.594Z,8.30
2023-04-13T07:38:52.545Z,8.40
2023-04-13T07:41:24.971Z,8.50
2023-04-13T07:43:54.429Z,8.40
2023-04-13T07:46:26.914Z,8.40
2023-04-13T07:48:57.656Z,8.50
2023-04-13T07:51:26.646Z,8.50
2023-04-13T07:53:56.386Z,8.70
2023-04-13T07:56:26.275Z,8.90
2023-04-13T07:58:59.209Z,8.90
2023-04-13T08:01:27.580Z,8.90
2023-04-13T08:03:55.835Z,9.00
2023-04-13T08:06:23.870Z,9.00
2023-04-13T08:08:53.707Z,9.20
2023-04-13T08:11:23.842Z,9.20
2023-04-13T08:13:53.387Z,9.40
2023-04-13T08:16:21.455Z,9.60
2023-04-13T08:18:50.669Z,9.80
2023-04-13T08:21:19.037Z,9.70
2023-04-13T08:23:47.291Z,9.90
2023-04-13T08:26:22.569Z,10.00
2023-04-13T08:28:54.846Z,10.30
2023-04-13T08:31:22.997Z,10.80
2023-04-13T08:33:51.503Z,10.80
2023-04-13T08:36:19.981Z,11.00
2023-04-13T08:38:49.991Z,11.00
2023-04-13T08:41:19.983Z,10.80
2023-04-13T08:43:50.813Z,10.80
2023-04-13T08:46:22.090Z,10.70
2023-04-13T08:48:55.338Z,10.60
2023-04-13T08:51:25.230Z,10.70
2023-04-13T08:53:54.756Z,10.70
2023-04-13T08:56:31.016Z,10.70
2023-04-13T08:59:06.915Z,11.00
2023-04-13T09:01:43.609Z,11.20
2023-04-13T09:04:14.033Z,11.60
2023-04-13T09:06:44.683Z,11.90
2023-04-13T09:09:14.940Z,12.10
2023-04-13T09:11:51.050Z,12.20
2023-04-13T09:14:22.312Z,12.10
2023-04-13T09:16:53.653Z,12.10
2023-04-13T09:19:33.496Z,12.00
2023-04-13T09:22:13.024Z,12.20
2023-04-13T09:24:41.648Z,11.80
2023-04-13T09:27:20.390Z,11.70
2023-04-13T09:29:52.905Z,11.80
2023-04-13T09:32:24.326Z,11.80
2023-04-13T09:35:01.576Z,11.70
2023-04-13T09:37:30.549Z,11.70
2023-04-13T09:40:09.998Z,11.90
2023-04-13T09:42:46.489Z,11.90
2023-04-13T09:45:14.765Z,12.00
2023-04-13T09:47:48.256Z,12.10
2023-04-13T09:50:19.311Z,12.30
2023-04-13T09:52:47.436Z,12.40
2023-04-13T09:55:17.984Z,12.40
2023-04-13T09:57:46.795Z,12.30
2023-04-13T10:00:21.872Z,12.30
2023-04-13T10:02:53.412Z,12.30
2023-04-13T10:05:22.928Z,12.60
2023-04-13T10:07:56.268Z,12.60
2023-04-13T10:10:26.481Z,12.70
2023-04-13T10:12:57.648Z,12.80
2023-04-13T10:15:39.405Z,13.00
2023-04-13T10:18:21.773Z,13.40
2023-04-13T10:20:52.130Z,13.70
2023-04-13T10:23:21.688Z,13.30
2023-04-13T10:25:55.018Z,13.10
2023-04-13T10:28:26.392Z,13.10
2023-04-13T10:30:55.243Z,13.20
2023-04-13T10:33:24.801Z,13.20
2023-04-13T10:35:58.402Z,13.20
2023-04-13T10:38:27.944Z,13.40
2023-04-13T10:40:58.320Z,13.30
2023-04-13T10:43:28.317Z,13.40
2023-04-13T10:46:10.956Z,13.40
2023-04-13T10:48:43.246Z,13.30
2023-04-13T10:51:11.365Z,13.40
2023-04-13T10:53:40.516Z,13.40
2023-04-13T10:56:17.537Z,13.30
2023-04-13T10:58:54.091Z,13.30
2023-04-13T11:01:26.562Z,13.40
2023-04-13T11:04:04.503Z,13.30
2023-04-13T11:06:39.164Z,13.50
2023-04-13T11:09:13.174Z,13.70
2023-04-13T11:11:44.093Z,13.80
2023-04-13T11:14:23.041Z,13.60
2023-04-13T11:16:58.520Z,13.30
2023-04-13T11:19:28.290Z,13.20
2023-04-13T11:21:58.022Z,13.20
2023-04-13T11:24:28.265Z,12.90
2023-04-13T11:26:58.263Z,12.70
2023-04-13T11:29:27.354Z,12.40
2023-04-13T11:31:55.748Z,12.40
2023-04-13T11:34:29.853Z,12.40
2023-04-13T11:37:02.311Z,12.60
2023-04-13T11:39:35.436Z,12.80
2023-04-13T11:42:08.052Z,13.00
2023-04-13T11:44:37.691Z,13.00
2023-04-13T11:47:08.814Z,12.90
2023-04-13T11:49:40.798Z,12.80
2023-04-13T11:52:15.361Z,12.80
2023-04-13T11:54:45.058Z,12.80
2023-04-13T11:57:13.736Z,12.80
2023-04-13T11:59:42.793Z,12.80
2023-04-13T12:02:21.998Z,13.00
2023-04-13T12:04:52.926Z,13.00
2023-04-13T12:07:22.104Z,13.20
2023-04-13T12:09:56.746Z,13.30
2023-04-13T12:15:17.268Z,13.70
2023-04-13T12:17:59.937Z,14.10
2023-04-13T12:20:40.925Z,14.10
2023-04-13T12:23:22.989Z,13.90
2023-04-13T12:25:59.809Z,13.70
2023-04-13T12:28:32.213Z,13.80
2023-04-13T12:31:08.079Z,13.90
2023-04-13T12:33:36.600Z,14.30
2023-04-13T12:36:07.873Z,14.50
2023-04-13T12:38:37.769Z,14.90
2023-04-13T12:41:13.816Z,14.70
2023-04-13T12:43:43.110Z,14.70
2023-04-13T12:46:11.718Z,15.20
2023-04-13T12:48:42.923Z,15.40
2023-04-13T12:51:12.297Z,15.60
2023-04-13T12:53:40.627Z,15.90
2023-04-13T12:56:09.707Z,16.00
2023-04-13T12:58:38.675Z,16.30
2023-04-13T13:01:07.125Z,15.70
2023-04-13T13:03:36.678Z,15.60
2023-04-13T13:06:06.757Z,15.20
2023-04-13T13:08:39.306Z,15.00
2023-04-13T13:11:08.214Z,14.90
2023-04-13T13:13:36.803Z,14.70
2023-04-13T13:16:05.451Z,14.70
2023-04-13T13:18:49.129Z,14.70
2023-04-13T13:21:19.484Z,14.40
2023-04-13T13:23:48.940Z,14.00
2023-04-13T13:28:48.174Z,12.80
2023-04-13T13:31:16.411Z,12.10
2023-04-13T13:33:44.486Z,11.80
2023-04-13T13:36:13.946Z,11.40
2023-04-13T13:38:42.682Z,10.50
2023-04-13T13:41:14.316Z,9.60
2023-04-13T13:43:44.185Z,8.80
2023-04-13T13:46:13.358Z,8.40
2023-04-13T13:48:43.982Z,8.20
2023-04-13T13:51:12.338Z,8.30
2023-04-13T13:53:40.793Z,8.40
2023-04-13T13:56:09.061Z,8.60
2023-04-13T13:58:38.571Z,8.70
2023-04-13T14:01:06.930Z,9.30
2023-04-13T14:03:35.073Z,10.20
2023-04-13T14:06:03.298Z,11.20
2023-04-13T14:08:31.220Z,11.80
2023-04-13T14:11:00.790Z,12.10
2023-04-13T14:13:28.664Z,12.30
2023-04-13T14:15:58.068Z,12.50
2023-04-13T14:18:26.546Z,12.80
2023-04-13T14:20:55.155Z,13.10
2023-04-13T14:23:23.322Z,13.70
2023-04-13T14:25:53.673Z,14.20
2023-04-13T14:28:22.904Z,14.10
2023-04-13T14:30:52.232Z,14.00
2023-04-13T14:33:23.252Z,13.90
2023-04-13T14:35:51.357Z,13.90
2023-04-13T14:38:22.705Z,14.00
2023-04-13T14:40:53.294Z,14.20
2023-04-13T14:43:21.713Z,14.30
2023-04-13T14:45:55.310Z,14.50
2023-04-13T14:48:24.852Z,14.80
2023-04-13T14:50:53.298Z,15.00
2023-04-13T14:53:21.419Z,15.30
2023-04-13T14:55:49.952Z,15.80
2023-04-13T14:58:17.946Z,16.20
2023-04-13T15:00:46.018Z,15.90
2023-04-13T15:03:15.725Z,15.50
2023-04-13T15:05:48.347Z,15.10
2023-04-13T15:08:19.247Z,14.80
2023-04-13T15:10:48.190Z,14.50
2023-04-13T15:13:18.838Z,14.40
2023-04-13T15:15:48.371Z,14.20
2023-04-13T15:18:16.683Z,13.70
2023-04-13T15:20:46.542Z,13.50
2023-04-13T15:23:16.323Z,13.50
2023-04-13T15:25:46.559Z,13.10
2023-04-13T15:28:14.801Z,12.70
2023-04-13T15:30:45.979Z,12.50
2023-04-13T15:33:14.315Z,12.30
2023-04-13T15:35:42.497Z,12.00
2023-04-13T15:38:13.413Z,11.90
2023-04-13T15:40:42.499Z,11.70
2023-04-13T15:43:10.872Z,11.50
2023-04-13T15:45:38.824Z,11.50
2023-04-13T15:48:07.534Z,11.30
2023-04-13T15:50:36.618Z,11.20
2023-04-13T15:53:05.025Z,11.10
2023-04-13T15:55:34.416Z,11.10
2023-04-13T15:58:04.030Z,11.00
2023-04-13T16:00:32.503Z,10.90
2023-04-13T16:03:01.312Z,11.00
2023-04-13T16:05:31.284Z,11.00
2023-04-13T16:08:00.365Z,10.90
2023-04-13T16:10:28.584Z,10.90
2023-04-13T16:12:58.654Z,10.80
2023-04-13T16:15:26.865Z,10.70
2023-04-13T16:17:56.869Z,10.80
2023-04-13T16:20:28.409Z,10.80
2023-04-13T16:23:02.121Z,10.70
2023-04-13T16:25:30.722Z,10.70
2023-04-13T16:28:00.798Z,10.60
2023-04-13T16:30:28.991Z,10.80
2023-04-13T16:32:57.434Z,10.80
2023-04-13T16:35:25.945Z,10.90
2023-04-13T16:40:22.628Z,11.10
2023-04-13T16:42:50.799Z,11.20
2023-04-13T16:45:20.903Z,11.20
2023-04-13T16:47:50.332Z,11.20
2023-04-13T16:50:19.118Z,11.30
2023-04-13T16:52:47.073Z,11.30
2023-04-13T16:55:15.635Z,11.30
2023-04-13T16:57:44.557Z,11.20
2023-04-13T17:00:15.049Z,11.30
2023-04-13T17:02:44.930Z,11.30
2023-04-13T17:05:15.186Z,11.20
2023-04-13T17:07:45.909Z,11.20
2023-04-13T17:10:14.398Z,11.10
2023-04-13T17:12:42.372Z,11.20
2023-04-13T17:15:11.198Z,11.20
2023-04-13T17:17:47.081Z,11.20
2023-04-13T17:20:17.634Z,11.10
2023-04-13T17:22:47.965Z,11.00
2023-04-13T17:25:16.084Z,10.80
2023-04-13T17:27:44.137Z,10.80
2023-04-13T17:30:13.486Z,10.50
2023-04-13T17:32:41.522Z,10.50
2023-04-13T17:35:10.487Z,10.50
2023-04-13T17:37:42.228Z,10.60
2023-04-13T17:40:15.664Z,10.70
2023-04-13T17:42:44.259Z,10.60
2023-04-13T17:45:16.276Z,10.50
2023-04-13T17:47:44.711Z,10.60
2023-04-13T17:50:14.392Z,10.50
2023-04-13T17:52:44.678Z,10.50
2023-04-13T17:55:16.249Z,10.50
2023-04-13T17:57:44.579Z,10.40
2023-04-13T18:00:15.745Z,10.30
2023-04-13T18:02:44.534Z,10.30
2023-04-13T18:05:16.150Z,10.20
2023-04-13T18:07:46.543Z,10.20
2023-04-13T18:10:16.735Z,10.10
2023-04-13T18:12:44.898Z,10.00
2023-04-13T18:15:13.879Z,9.90
2023-04-13T18:17:42.942Z,9.70
2023-04-13T18:20:12.762Z,9.70
2023-04-13T18:22:41.000Z,9.60
2023-04-13T18:25:11.251Z,9.50
2023-04-13T18:27:39.950Z,9.50
2023-04-13T18:30:09.513Z,9.50
2023-04-13T18:32:37.671Z,9.40
2023-04-13T18:35:06.542Z,9.30
2023-04-13T18:37:34.791Z,9.30
2023-04-13T18:40:05.460Z,9.30
2023-04-13T18:42:37.638Z,9.20
2023-04-13T18:45:06.734Z,9.10
2023-04-13T18:47:35.376Z,9.10
2023-04-13T18:50:05.846Z,9.10
2023-04-13T18:52:37.381Z,9.00
2023-04-13T18:55:06.350Z,9.00
2023-04-13T18:57:40.538Z,8.90
2023-04-13T19:00:11.684Z,8.90
2023-04-13T19:02:40.834Z,8.80
2023-04-13T19:05:12.816Z,8.80
2023-04-13T19:07:44.907Z,8.80
2023-04-13T19:10:13.380Z,8.70
2023-04-13T19:12:43.353Z,8.70
2023-04-13T19:15:12.828Z,8.60
2023-04-13T19:17:41.850Z,8.50
2023-04-13T19:20:10.864Z,8.50
2023-04-13T19:22:41.866Z,8.40
2023-04-13T19:25:14.354Z,8.30
2023-04-13T19:27:45.062Z,8.30
2023-04-13T19:30:14.248Z,8.20
2023-04-13T19:32:43.911Z,8.10
2023-04-13T19:35:13.710Z,8.10
2023-04-13T19:37:41.824Z,8.00
2023-04-13T19:40:13.947Z,8.00
2023-04-13T19:42:46.969Z,7.90
2023-04-13T19:45:16.278Z,7.80
2023-04-13T19:47:44.620Z,7.80
2023-04-13T19:50:14.867Z,7.70
2023-04-13T19:52:47.007Z,7.60
2023-04-13T19:55:16.450Z,7.60
2023-04-13T19:57:46.475Z,7.50
2023-04-13T20:00:21.043Z,7.40
2023-04-13T20:02:52.948Z,7.30
2023-04-13T20:05:22.337Z,7.30
2023-04-13T20:07:52.244Z,7.20
2023-04-13T20:10:20.949Z,7.20
2023-04-13T20:12:50.860Z,7.20
2023-04-13T20:15:18.925Z,7.10
2023-04-13T20:17:47.881Z,7.00
2023-04-13T20:20:18.459Z,7.00
2023-04-13T20:22:47.734Z,6.90
2023-04-13T20:25:18.317Z,6.90
2023-04-13T20:27:50.123Z,6.90
2023-04-13T20:30:19.638Z,6.80
2023-04-13T20:32:47.825Z,6.80
2023-04-13T20:35:19.985Z,6.70
2023-04-13T20:37:50.950Z,6.70
2023-04-13T20:40:19.990Z,6.70
2023-04-13T20:42:48.334Z,6.70
2023-04-13T20:45:17.644Z,6.70
2023-04-13T20:47:50.921Z,6.60
2023-04-13T20:50:23.825Z,6.60
2023-04-13T20:52:55.530Z,6.50
2023-04-13T20:55:24.531Z,6.50
2023-04-13T20:57:54.886Z,6.50
2023-04-13T21:00:25.609Z,6.50
2023-04-13T21:02:57.953Z,6.50
2023-04-13T21:05:26.363Z,6.50
2023-04-13T21:07:57.005Z,6.50
2023-04-13T21:10:25.571Z,6.40
2023-04-13T21:12:53.749Z,6.40
2023-04-13T21:15:22.448Z,6.40
2023-04-13T21:17:51.730Z,6.30
2023-04-13T21:20:21.660Z,6.30
2023-04-13T21:22:50.643Z,6.30
2023-04-13T21:25:19.032Z,6.20
2023-04-13T21:27:49.603Z,6.20
2023-04-13T21:30:17.928Z,6.20
2023-04-13T21:32:46.940Z,6.20
2023-04-13T21:35:23.770Z,6.20
2023-04-13T21:37:53.693Z,6.20
2023-04-13T21:40:24.452Z,6.10
2023-04-13T21:42:52.616Z,6.00
2023-04-13T21:45:21.095Z,5.90
2023-04-13T21:47:49.568Z,5.80
2023-04-13T21:50:17.611Z,5.70
2023-04-13T21:52:45.705Z,5.60
2023-04-13T21:55:18.152Z,5.50
2023-04-13T21:57:46.570Z,5.40
2023-04-13T22:00:18.018Z,5.30
2023-04-13T22:02:48.978Z,5.30
2023-04-13T22:05:18.736Z,5.20
2023-04-13T22:07:46.685Z,5.20
2023-04-13T22:10:17.857Z,5.20
2023-04-13T22:12:46.918Z,5.20
2023-04-13T22:15:15.337Z,5.20
2023-04-13T22:17:43.512Z,5.20
2023-04-13T22:20:14.075Z,5.20
2023-04-13T22:22:41.941Z,5.20
2023-04-13T22:25:10.746Z,5.20
2023-04-13T22:27:42.347Z,5.20
2023-04-13T22:30:13.068Z,5.20
2023-04-13T22:32:41.996Z,5.10
2023-04-13T22:35:11.125Z,5.10
2023-04-13T22:37:39.374Z,5.20
2023-04-13T22:40:09.603Z,5.10
2023-04-13T22:42:39.231Z,5.00
2023-04-13T22:45:09.624Z,5.00
2023-04-13T22:47:39.673Z,5.00
2023-04-13T22:50:08.646Z,5.00
2023-04-13T22:52:36.500Z,5.00
2023-04-13T22:55:05.139Z,5.00
2023-04-13T22:57:35.554Z,5.00
2023-04-13T23:00:05.817Z,4.90
2023-04-13T23:02:33.951Z,4.90
2023-04-13T23:05:04.820Z,4.90
2023-04-13T23:07:33.099Z,4.80
2023-04-13T23:10:02.613Z,4.80
2023-04-13T23:12:31.028Z,4.80
2023-04-13T23:14:59.927Z,4.80
2023-04-13T23:17:32.717Z,4.80
2023-04-13T23:20:01.325Z,4.70
2023-04-13T23:22:29.540Z,4.70
2023-04-13T23:24:58.005Z,4.70
2023-04-13T23:27:26.696Z,4.60
2023-04-13T23:29:54.761Z,4.60
2023-04-13T23:32:26.222Z,4.60
2023-04-13T23:34:56.593Z,4.60
2023-04-13T23:37:24.877Z,4.50
2023-04-13T23:39:53.362Z,4.50
2023-04-13T23:42:21.272Z,4.50
2023-04-13T23:44:50.364Z,4.40
2023-04-13T23:47:18.416Z,4.40
2023-04-13T23:49:47.240Z,4.40
2023-04-13T23:52:17.773Z,4.40
2023-04-13T23:54:48.342Z,4.40
2023-04-13T23:57:17.179Z,4.40
2023-04-13T23:59:46.220Z,4.40
